Time;durP1;ratioP1;P1;durP2;ratioP2;P2;SDS_P1;SDS_P2;PMS_P1;PMS_P2;Temp;Humidity;BMP_temperature;BMP_pressure;BME280_temperature;BME280_humidity;BME280_pressure;Samples;Min_cycle;Max_cycle;Signal;HPM_P1;HPM_P2
2023/01/02 00:02:26;;;;;;;115.13;63.75;;;10.30;99.90;;;;;;5101925;28;20027;-79
2023/01/02 00:04:52;;;;;;;104.07;61.33;;;10.30;99.90;;;;;;5101065;28;20045;-79
2023/01/02 00:07:18;;;;;;;104.25;60.00;;;10.30;99.90;;;;;;5099641;28;20028;-79
2023/01/02 00:09:44;;;;;;;100.72;58.28;;;10.30;99.90;;;;;;5098994;28;20394;-79
2023/01/02 00:12:10;;;;;;;100.20;57.38;;;10.30;99.90;;;;;;5102144;28;20081;-79
2023/01/02 00:14:35;;;;;;;105.63;60.13;;;10.30;99.90;;;;;;5099051;28;20491;-79
2023/01/02 00:17:01;;;;;;;97.28;57.58;;;10.30;99.90;;;;;;5099799;28;20032;-79
2023/01/02 00:19:27;;;;;;;97.20;56.70;;;10.30;99.90;;;;;;5098280;28;20056;-79
2023/01/02 00:21:52;;;;;;;96.32;56.67;;;10.30;99.90;;;;;;5101347;28;20028;-79
2023/01/02 00:24:18;;;;;;;106.38;59.15;;;10.20;99.90;;;;;;5097647;28;20394;-79
2023/01/02 00:26:44;;;;;;;96.88;56.55;;;10.30;99.90;;;;;;5101137;28;20044;-79
2023/01/02 00:29:10;;;;;;;95.75;57.13;;;10.30;99.90;;;;;;5101779;28;20024;-79
2023/01/02 00:31:35;;;;;;;91.75;53.67;;;10.20;99.90;;;;;;5101047;28;20019;-79
2023/01/02 00:34:01;;;;;;;92.85;56.15;;;10.30;99.90;;;;;;5099047;28;20031;-79
2023/01/02 00:36:27;;;;;;;100.25;56.80;;;10.30;99.90;;;;;;5100807;28;20515;-79
2023/01/02 00:38:56;;;;;;;91.72;55.28;;;10.20;99.90;;;;;;5107399;28;20032;-79
2023/01/02 00:41:22;;;;;;;94.20;55.30;;;10.20;99.90;;;;;;5101099;28;20433;-79
2023/01/02 00:43:47;;;;;;;93.65;55.85;;;10.20;99.90;;;;;;5100727;28;20023;-79
2023/01/02 00:46:14;;;;;;;97.80;56.22;;;10.20;99.90;;;;;;5100361;28;20032;-79
2023/01/02 00:48:40;;;;;;;99.45;55.97;;;10.20;99.90;;;;;;5103089;28;20088;-79
2023/01/02 00:51:07;;;;;;;92.22;55.67;;;10.20;99.90;;;;;;5104365;28;20043;-79
2023/01/02 00:53:32;;;;;;;98.13;55.60;;;10.20;99.90;;;;;;5104198;28;20028;-79
2023/01/02 00:55:58;;;;;;;100.22;55.83;;;10.20;99.90;;;;;;5102240;28;20027;-79
2023/01/02 00:58:24;;;;;;;103.18;56.28;;;10.20;99.90;;;;;;5109866;28;20023;-79
2023/01/02 01:00:50;;;;;;;97.20;54.83;;;10.20;99.90;;;;;;5104452;28;20035;-79
2023/01/02 01:03:15;;;;;;;95.50;53.22;;;10.20;99.90;;;;;;5104941;28;20035;-79
2023/01/02 01:05:41;;;;;;;91.40;53.63;;;10.20;99.90;;;;;;5103918;28;20467;-79
2023/01/02 01:08:07;;;;;;;95.72;52.90;;;10.20;99.90;;;;;;5107075;28;20024;-79
2023/01/02 01:10:35;;;;;;;96.97;54.00;;;10.20;99.90;;;;;;5105429;28;20028;-79
2023/01/02 01:13:01;;;;;;;89.10;51.25;;;10.20;99.90;;;;;;5103322;28;20035;-79
2023/01/02 01:15:27;;;;;;;94.50;53.20;;;10.20;99.90;;;;;;5106866;28;20031;-79
2023/01/02 01:17:53;;;;;;;87.57;51.67;;;10.20;99.90;;;;;;5102989;28;20027;-79
2023/01/02 01:20:19;;;;;;;93.38;53.50;;;10.20;99.90;;;;;;5097630;28;20135;-79
2023/01/02 01:22:44;;;;;;;101.88;53.67;;;10.20;99.90;;;;;;5106516;28;20036;-79
2023/01/02 01:25:10;;;;;;;102.65;55.65;;;10.20;99.90;;;;;;5102210;28;20078;-79
2023/01/02 01:27:36;;;;;;;101.82;57.65;;;10.20;99.90;;;;;;5103404;28;20386;-79
2023/01/02 01:30:03;;;;;;;98.53;54.50;;;10.20;99.90;;;;;;5103721;28;20027;-79
2023/01/02 01:32:29;;;;;;;95.05;53.83;;;10.20;99.90;;;;;;5103990;28;20030;-79
2023/01/02 01:34:54;;;;;;;109.78;57.75;;;10.20;99.90;;;;;;5102787;28;20016;-79
2023/01/02 01:37:20;;;;;;;106.68;56.45;;;10.20;99.90;;;;;;5105528;28;20146;-79
2023/01/02 01:39:46;;;;;;;102.60;54.28;;;10.20;99.90;;;;;;5104591;28;20031;-79
2023/01/02 01:42:15;;;;;;;106.47;56.30;;;10.20;99.90;;;;;;5106295;28;20028;-79
2023/01/02 01:44:45;;;;;;;106.70;54.33;;;10.20;99.90;;;;;;5103235;28;20369;-79
2023/01/02 01:47:33;;;;;;;108.32;56.88;;;10.20;99.90;;;;;;5104652;28;20024;-79
2023/01/02 01:50:09;;;;;;;98.80;54.85;;;10.20;99.90;;;;;;5103349;28;20051;-79
2023/01/02 01:52:40;;;;;;;104.20;55.17;;;10.10;99.90;;;;;;5102797;28;20019;-79
2023/01/02 01:55:34;;;;;;;106.35;55.20;;;10.10;99.90;;;;;;5105076;28;20024;-79
2023/01/02 01:58:07;;;;;;;104.93;55.97;;;10.20;99.90;;;;;;5103356;28;20047;-79
2023/01/02 02:00:33;;;;;;;115.28;55.95;;;10.20;99.90;;;;;;5101798;28;20027;-78
2023/01/02 02:03:05;;;;;;;116.65;58.15;;;10.20;99.90;;;;;;5120856;27;20119;-79
2023/01/02 02:05:31;;;;;;;121.38;60.15;;;10.20;99.90;;;;;;5106056;28;20027;-79
2023/01/02 02:08:03;;;;;;;112.65;57.03;;;10.20;99.90;;;;;;5101451;28;20554;-79
2023/01/02 02:10:29;;;;;;;122.55;59.22;;;10.20;99.90;;;;;;5101903;28;20020;-79
2023/01/02 02:12:55;;;;;;;123.45;59.92;;;10.20;99.90;;;;;;5104420;28;20027;-79
2023/01/02 02:15:29;;;;;;;118.63;58.47;;;10.20;99.90;;;;;;5102268;28;20028;-79
2023/01/02 02:18:01;;;;;;;120.13;59.85;;;10.20;99.90;;;;;;5102258;28;20107;-79
2023/01/02 02:20:54;;;;;;;112.40;59.85;;;10.20;99.90;;;;;;5103427;28;20024;-79
2023/01/02 02:23:44;;;;;;;114.75;58.97;;;10.20;99.90;;;;;;5102251;28;20012;-78
2023/01/02 02:26:35;;;;;;;119.63;61.67;;;10.20;99.90;;;;;;5098736;28;20028;-79
2023/01/02 02:29:42;;;;;;;125.80;62.08;;;10.20;99.90;;;;;;5105905;28;20019;-79
2023/01/02 02:32:52;;;;;;;128.13;61.80;;;10.20;99.90;;;;;;5062983;28;20118;-79
2023/01/02 02:35:27;;;;;;;135.18;64.38;;;10.20;99.90;;;;;;5082356;28;20487;-79
2023/01/02 02:38:00;;;;;;;134.13;61.47;;;10.20;99.90;;;;;;5104189;28;20455;-79
2023/01/02 02:40:44;;;;;;;128.95;61.00;;;10.20;99.90;;;;;;5099890;28;20023;-79
2023/01/02 02:43:21;;;;;;;126.75;61.75;;;10.20;99.90;;;;;;5101907;28;20028;-79
2023/01/02 02:46:03;;;;;;;122.80;61.17;;;10.20;99.90;;;;;;5102077;28;20028;-79
2023/01/02 02:48:44;;;;;;;132.55;63.72;;;10.20;99.90;;;;;;5102302;28;20503;-79
2023/01/02 02:51:21;;;;;;;133.40;63.85;;;10.20;99.90;;;;;;5102454;28;20081;-79
2023/01/02 02:53:58;;;;;;;131.25;60.58;;;10.20;99.90;;;;;;5104999;28;20118;-79
2023/01/02 02:56:27;;;;;;;133.60;61.00;;;10.20;99.90;;;;;;5103610;28;20034;-79
2023/01/02 02:58:54;;;;;;;128.00;61.53;;;10.20;99.90;;;;;;5103357;28;20024;-78
2023/01/02 03:01:26;;;;;;;133.23;62.35;;;10.20;99.90;;;;;;5102521;28;20031;-79
2023/01/02 03:03:51;;;;;;;128.85;62.78;;;10.20;99.90;;;;;;5101600;28;20509;-79
2023/01/02 03:06:17;;;;;;;140.23;64.53;;;10.20;99.90;;;;;;5101571;28;20068;-79
2023/01/02 03:08:58;;;;;;;135.30;63.47;;;10.20;99.90;;;;;;5103278;28;20027;-79
2023/01/02 03:11:35;;;;;;;133.65;62.72;;;10.20;99.90;;;;;;5103515;28;20020;-79
2023/01/02 03:14:06;;;;;;;128.48;61.45;;;10.20;99.90;;;;;;5101600;28;20024;-79
2023/01/02 03:16:45;;;;;;;135.02;62.05;;;10.20;99.90;;;;;;5102274;28;20027;-78
2023/01/02 03:19:23;;;;;;;132.50;62.30;;;10.20;99.90;;;;;;5103503;28;20597;-79
2023/01/02 03:22:05;;;;;;;126.28;59.33;;;10.20;99.90;;;;;;5100753;28;20031;-79
2023/01/02 03:24:31;;;;;;;134.45;61.25;;;10.20;99.90;;;;;;5101198;28;20394;-79
2023/01/02 03:27:02;;;;;;;137.88;60.78;;;10.20;99.90;;;;;;5097675;28;20111;-79
2023/01/02 03:29:37;;;;;;;128.55;61.33;;;10.20;99.90;;;;;;5100636;28;20110;-79
2023/01/02 03:32:09;;;;;;;137.68;62.65;;;10.20;99.90;;;;;;5102760;28;20020;-78
2023/01/02 03:34:38;;;;;;;135.95;63.17;;;10.20;99.90;;;;;;5103364;28;20020;-79
2023/01/02 03:37:10;;;;;;;137.73;62.78;;;10.20;99.90;;;;;;5099857;28;20052;-78
2023/01/02 03:39:42;;;;;;;134.13;63.25;;;10.20;99.90;;;;;;5117010;27;20035;-78
2023/01/02 03:42:26;;;;;;;127.47;62.25;;;10.20;99.90;;;;;;5102928;28;20028;-79
2023/01/02 03:45:06;;;;;;;120.72;58.65;;;10.20;99.90;;;;;;5125356;27;20521;-78
2023/01/02 03:47:37;;;;;;;126.03;59.53;;;10.20;99.90;;;;;;5101309;28;20024;-79
2023/01/02 03:50:23;;;;;;;139.40;60.00;;;10.20;99.90;;;;;;5091753;28;20024;-78
2023/01/02 03:52:49;;;;;;;126.53;60.53;;;10.20;99.90;;;;;;5121701;27;20038;-78
2023/01/02 03:55:16;;;;;;;142.25;63.83;;;10.20;99.90;;;;;;5103641;28;20024;-78
2023/01/02 03:57:41;;;;;;;141.15;63.90;;;10.20;99.90;;;;;;5108429;28;20038;-78
2023/01/02 04:00:12;;;;;;;140.45;61.42;;;10.20;99.90;;;;;;5096456;28;20029;-78
2023/01/02 04:02:48;;;;;;;126.75;60.25;;;10.20;99.90;;;;;;5104785;28;20028;-78
2023/01/02 04:05:20;;;;;;;141.48;62.08;;;10.20;99.90;;;;;;5098963;28;20055;-78
2023/01/02 04:07:50;;;;;;;134.90;60.88;;;10.20;99.90;;;;;;5100947;28;20114;-78
2023/01/02 04:10:17;;;;;;;135.38;62.10;;;10.10;99.90;;;;;;5105930;28;20387;-78
2023/01/02 04:12:48;;;;;;;160.18;63.78;;;10.10;99.90;;;;;;5100199;28;20061;-78
2023/01/02 04:15:18;;;;;;;146.00;64.70;;;10.10;99.90;;;;;;5122985;27;20482;-78
2023/01/02 04:17:53;;;;;;;138.70;61.65;;;10.10;99.90;;;;;;5112158;28;20056;-78
2023/01/02 04:20:43;;;;;;;139.95;62.45;;;10.10;99.90;;;;;;5099909;28;20288;-78
2023/01/02 04:23:18;;;;;;;139.88;64.60;;;10.10;99.90;;;;;;5110928;28;20471;-78
2023/01/02 04:26:09;;;;;;;143.25;64.50;;;10.10;99.90;;;;;;5104064;28;20048;-78
2023/01/02 04:28:35;;;;;;;129.07;62.75;;;10.10;99.90;;;;;;5104398;28;20028;-78
2023/01/02 04:31:12;;;;;;;123.65;60.90;;;10.10;99.90;;;;;;5115737;28;20071;-78
2023/01/02 04:33:43;;;;;;;124.65;61.83;;;10.10;99.90;;;;;;5104076;28;20055;-78
2023/01/02 04:36:11;;;;;;;142.57;62.92;;;10.10;99.90;;;;;;5100573;28;20131;-78
2023/01/02 04:38:37;;;;;;;153.82;63.80;;;10.10;99.90;;;;;;5097908;28;20024;-78
2023/01/02 04:41:03;;;;;;;148.80;63.80;;;10.20;99.90;;;;;;5098180;28;20035;-78
2023/01/02 04:43:29;;;;;;;143.32;67.60;;;10.10;99.90;;;;;;5106711;28;20037;-78
2023/01/02 04:45:55;;;;;;;153.90;64.88;;;10.10;99.90;;;;;;5098589;28;20024;-78
2023/01/02 04:48:20;;;;;;;156.20;63.22;;;10.10;99.90;;;;;;5102164;28;20356;-78
2023/01/02 04:50:47;;;;;;;128.80;61.15;;;10.10;99.90;;;;;;5099723;28;20016;-78
2023/01/02 04:53:14;;;;;;;129.45;62.30;;;10.10;99.90;;;;;;5098304;28;20024;-78
2023/01/02 04:55:39;;;;;;;128.50;60.17;;;10.10;99.90;;;;;;5103150;28;20031;-78
2023/01/02 04:58:06;;;;;;;137.98;62.92;;;10.20;99.90;;;;;;5100577;28;20028;-78
2023/01/02 05:00:32;;;;;;;141.57;63.38;;;10.10;99.90;;;;;;5118515;28;20035;-78
2023/01/02 05:02:59;;;;;;;141.25;63.45;;;10.10;99.90;;;;;;5100242;28;20073;-78
2023/01/02 05:05:25;;;;;;;130.60;62.00;;;10.10;99.90;;;;;;5118250;28;20019;-78
2023/01/02 05:07:51;;;;;;;148.27;63.08;;;10.10;99.90;;;;;;5100342;28;20024;-78
2023/01/02 05:10:17;;;;;;;142.77;63.03;;;10.10;99.90;;;;;;5100541;28;20031;-78
2023/01/02 05:12:42;;;;;;;131.90;61.42;;;10.20;99.90;;;;;;5100950;28;20012;-78
2023/01/02 05:15:09;;;;;;;147.88;65.47;;;10.20;99.90;;;;;;5101487;28;20027;-77
2023/01/02 05:17:36;;;;;;;146.50;64.15;;;10.20;99.90;;;;;;5101224;28;20072;-78
2023/01/02 05:20:03;;;;;;;137.75;65.68;;;10.20;99.90;;;;;;5101009;28;20055;-78
2023/01/02 05:25:13;;;;;;;138.02;63.15;;;10.20;99.90;;;;;;5099537;28;20043;-78
2023/01/02 05:27:39;;;;;;;159.15;67.13;;;10.20;99.90;;;;;;5101493;28;20024;-78
2023/01/02 05:30:06;;;;;;;144.43;64.82;;;10.10;99.90;;;;;;5098057;28;20021;-77
2023/01/02 05:32:32;;;;;;;140.95;68.22;;;10.20;99.90;;;;;;5118615;28;20028;-78
2023/01/02 05:34:58;;;;;;;136.95;65.80;;;10.20;99.90;;;;;;5105876;28;20063;-78
2023/01/02 05:37:24;;;;;;;130.52;65.63;;;10.20;99.90;;;;;;5113355;28;20122;-77
2023/01/02 05:39:49;;;;;;;142.50;65.68;;;10.20;99.90;;;;;;5112107;28;20024;-78
2023/01/02 05:42:15;;;;;;;155.77;69.95;;;10.20;99.90;;;;;;5112293;28;20465;-78
2023/01/02 05:44:41;;;;;;;120.03;65.07;;;10.20;99.90;;;;;;5113359;28;20027;-78
2023/01/02 05:47:06;;;;;;;126.50;65.57;;;10.10;99.90;;;;;;5111945;28;20080;-77
2023/01/02 05:49:32;;;;;;;135.77;67.05;;;10.10;99.90;;;;;;5113220;28;20033;-78
2023/01/02 05:51:58;;;;;;;176.27;68.57;;;10.10;99.90;;;;;;5106059;28;20028;-77
2023/01/02 05:54:23;;;;;;;274.73;74.68;;;10.10;99.90;;;;;;5103611;28;20026;-78
2023/01/02 05:56:49;;;;;;;132.20;68.03;;;10.10;99.90;;;;;;5102261;28;20032;-77
2023/01/02 05:59:15;;;;;;;145.00;68.32;;;10.10;99.90;;;;;;5103252;28;20028;-78
2023/01/02 06:01:41;;;;;;;152.18;68.38;;;10.10;99.90;;;;;;5105616;28;20027;-78
2023/01/02 06:04:07;;;;;;;148.57;69.38;;;10.10;99.90;;;;;;5102771;28;20028;-78
2023/01/02 06:06:35;;;;;;;218.45;73.15;;;10.10;99.90;;;;;;5104437;28;20440;-78
2023/01/02 06:09:03;;;;;;;136.18;67.88;;;10.10;99.90;;;;;;5102431;28;20479;-78
2023/01/02 06:11:30;;;;;;;173.65;72.97;;;10.20;99.90;;;;;;5105819;28;20516;-77
2023/01/02 06:13:56;;;;;;;264.65;78.40;;;10.10;99.90;;;;;;5101100;28;20024;-78
2023/01/02 06:16:22;;;;;;;226.82;72.53;;;10.10;99.90;;;;;;5105810;28;20035;-78
2023/01/02 06:18:49;;;;;;;340.05;80.03;;;10.10;99.90;;;;;;5101976;28;20028;-78
2023/01/02 06:21:17;;;;;;;156.05;70.35;;;10.00;99.90;;;;;;5101956;28;20095;-77
2023/01/02 06:23:43;;;;;;;180.98;72.43;;;10.10;99.90;;;;;;5101254;28;20024;-77
2023/01/02 06:26:15;;;;;;;200.60;71.80;;;10.10;99.90;;;;;;5119357;27;20112;-77
2023/01/02 06:28:41;;;;;;;509.33;91.93;;;10.00;99.90;;;;;;5106958;28;20474;-78
2023/01/02 06:31:11;;;;;;;170.27;77.43;;;10.00;99.90;;;;;;5098770;28;20020;-78
2023/01/02 06:33:37;;;;;;;416.73;83.45;;;10.00;99.90;;;;;;5103185;28;20111;-78
2023/01/02 06:36:05;;;;;;;218.63;74.13;;;10.00;99.90;;;;;;5098492;28;20499;-75
2023/01/02 06:38:31;;;;;;;246.20;86.43;;;10.00;99.90;;;;;;5104916;27;20117;-78
2023/01/02 06:40:59;;;;;;;171.05;70.32;;;10.00;99.90;;;;;;5105263;28;20019;-78
2023/01/02 06:43:26;;;;;;;147.75;69.65;;;10.10;99.90;;;;;;5105784;28;20024;-78
2023/01/02 06:45:51;;;;;;;149.93;67.40;;;10.10;99.90;;;;;;5100186;28;20504;-78
2023/01/02 06:48:18;;;;;;;194.10;66.60;;;10.10;99.90;;;;;;5104199;28;20044;-77
2023/01/02 06:50:44;;;;;;;135.90;63.72;;;10.10;99.90;;;;;;5111677;28;20110;-78
2023/01/02 06:53:11;;;;;;;138.32;64.20;;;10.10;99.90;;;;;;5105808;28;20035;-78
2023/01/02 06:55:37;;;;;;;145.35;64.68;;;10.10;99.90;;;;;;5104689;28;20034;-77
2023/01/02 06:58:03;;;;;;;223.07;67.63;;;10.10;99.90;;;;;;5104231;28;20032;-77
2023/01/02 07:00:30;;;;;;;334.48;72.40;;;10.10;99.90;;;;;;5104317;28;20114;-78
2023/01/02 07:02:56;;;;;;;133.45;62.13;;;10.10;99.90;;;;;;5100450;28;20479;-78
2023/01/02 07:05:21;;;;;;;148.18;61.80;;;10.10;99.90;;;;;;5101035;28;20089;-78
2023/01/02 07:07:47;;;;;;;135.18;62.33;;;10.10;99.90;;;;;;5102184;28;20391;-78
2023/01/02 07:10:13;;;;;;;137.02;62.42;;;10.10;99.90;;;;;;5104791;28;20024;-78
2023/01/02 07:12:39;;;;;;;130.05;60.60;;;10.20;99.90;;;;;;5101385;28;20023;-78
2023/01/02 07:15:06;;;;;;;120.10;59.05;;;10.20;99.90;;;;;;5101421;28;20035;-78
2023/01/02 07:17:32;;;;;;;127.53;60.55;;;10.10;99.90;;;;;;5101467;28;20110;-78
2023/01/02 07:19:58;;;;;;;127.75;60.45;;;10.10;99.90;;;;;;5101060;28;20395;-78
2023/01/02 07:22:24;;;;;;;133.23;58.55;;;10.10;99.90;;;;;;5103321;28;20027;-78
2023/01/02 07:24:50;;;;;;;130.65;59.78;;;10.10;99.90;;;;;;5100645;28;20056;-78
2023/01/02 07:27:16;;;;;;;122.28;57.42;;;10.10;99.90;;;;;;5100171;28;20427;-78
2023/01/02 07:29:42;;;;;;;127.55;59.97;;;10.10;99.90;;;;;;5102258;28;20024;-78
2023/01/02 07:32:07;;;;;;;125.78;57.92;;;10.10;99.90;;;;;;5101092;28;20077;-78
2023/01/02 07:34:33;;;;;;;131.27;58.58;;;10.10;99.90;;;;;;5104015;28;20035;-78
2023/01/02 07:36:59;;;;;;;118.60;56.92;;;10.10;99.90;;;;;;5100342;28;20070;-77
2023/01/02 07:39:24;;;;;;;137.45;59.60;;;10.10;99.90;;;;;;5116019;27;20024;-78
2023/01/02 07:41:50;;;;;;;131.18;59.17;;;10.20;99.90;;;;;;5102569;28;20479;-78
2023/01/02 07:44:16;;;;;;;119.93;56.10;;;10.10;99.90;;;;;;5099558;28;20416;-77
2023/01/02 07:46:41;;;;;;;118.25;57.15;;;10.10;99.90;;;;;;5103199;28;20114;-77
2023/01/02 07:49:09;;;;;;;112.60;56.28;;;10.10;99.90;;;;;;5099838;28;20036;-78
2023/01/02 07:51:35;;;;;;;115.82;56.67;;;10.20;99.90;;;;;;5101898;28;20160;-78
2023/01/02 07:54:01;;;;;;;122.97;57.67;;;10.20;99.90;;;;;;5100175;28;20039;-77
2023/01/02 07:56:26;;;;;;;114.22;57.72;;;10.20;99.90;;;;;;5102160;28;20050;-77
2023/01/02 07:58:52;;;;;;;117.90;55.80;;;10.20;99.90;;;;;;5100106;28;20490;-77
2023/01/02 08:01:18;;;;;;;145.13;57.78;;;10.20;99.90;;;;;;5101776;28;20475;-77
2023/01/02 08:03:43;;;;;;;116.82;54.28;;;10.20;99.90;;;;;;5102262;28;20023;-77
2023/01/02 08:06:12;;;;;;;101.78;53.92;;;10.20;99.90;;;;;;5098574;28;20479;-77
2023/01/02 08:08:39;;;;;;;119.20;56.83;;;10.20;99.90;;;;;;5101428;28;20496;-77
2023/01/02 08:11:17;;;;;;;118.95;56.63;;;10.20;99.90;;;;;;5101097;28;20023;-77
2023/01/02 08:13:43;;;;;;;114.82;57.90;;;10.20;99.90;;;;;;5101303;28;20028;-77
2023/01/02 08:16:19;;;;;;;114.45;56.05;;;10.20;99.90;;;;;;5101079;28;20107;-77
2023/01/02 08:18:46;;;;;;;183.63;61.67;;;10.20;99.90;;;;;;5098503;28;20028;-77
2023/01/02 08:21:12;;;;;;;119.53;55.45;;;10.20;99.90;;;;;;5102169;28;20122;-77
2023/01/02 08:23:38;;;;;;;163.63;57.63;;;10.20;99.90;;;;;;5100334;28;20060;-77
2023/01/02 08:26:06;;;;;;;111.68;55.75;;;10.10;99.90;;;;;;5102811;28;20057;-78
2023/01/02 08:28:34;;;;;;;117.68;55.80;;;10.20;99.90;;;;;;5099299;28;20074;-78
2023/01/02 08:31:00;;;;;;;131.52;55.78;;;10.20;99.90;;;;;;5098704;28;20061;-78
2023/01/02 08:33:26;;;;;;;115.45;54.75;;;10.20;99.90;;;;;;5101581;28;20054;-77
2023/01/02 08:35:52;;;;;;;116.50;54.60;;;10.10;99.90;;;;;;5098907;28;20499;-77
2023/01/02 08:38:18;;;;;;;107.30;54.53;;;10.20;99.90;;;;;;5101195;28;20035;-77
2023/01/02 08:40:44;;;;;;;153.93;57.88;;;10.20;99.90;;;;;;5100619;28;20023;-77
2023/01/02 08:43:10;;;;;;;146.13;58.35;;;10.20;99.90;;;;;;5101975;28;20486;-77
2023/01/02 08:45:36;;;;;;;139.27;59.63;;;10.20;99.90;;;;;;5102573;28;20024;-78
2023/01/02 08:48:02;;;;;;;132.75;56.92;;;10.20;99.90;;;;;;5108704;28;20028;-78
2023/01/02 08:50:27;;;;;;;171.80;62.85;;;10.20;99.90;;;;;;5103114;28;20020;-77
2023/01/02 08:52:53;;;;;;;208.65;63.03;;;10.20;99.90;;;;;;5103281;28;20483;-77
2023/01/02 08:55:19;;;;;;;166.50;61.55;;;10.20;99.90;;;;;;5103170;28;20031;-78
2023/01/02 08:57:44;;;;;;;143.43;61.13;;;10.20;99.90;;;;;;5104405;28;20421;-78
2023/01/02 09:00:11;;;;;;;144.15;61.78;;;10.20;99.90;;;;;;5102314;28;20023;-78
2023/01/02 09:02:36;;;;;;;164.13;62.97;;;10.20;99.90;;;;;;5115637;28;20046;-77
2023/01/02 09:05:02;;;;;;;172.73;66.28;;;10.20;99.90;;;;;;5103257;28;20541;-77
2023/01/02 09:07:31;;;;;;;180.95;65.13;;;10.30;99.90;;;;;;5109115;28;20024;-78
2023/01/02 09:09:57;;;;;;;165.23;64.13;;;10.20;99.90;;;;;;5113078;28;20023;-77
2023/01/02 09:12:23;;;;;;;200.57;63.53;;;10.20;99.90;;;;;;5114798;27;20019;-77
2023/01/02 09:14:48;;;;;;;153.52;61.08;;;10.30;99.90;;;;;;5113471;28;20011;-77
2023/01/02 09:17:14;;;;;;;139.68;59.70;;;10.30;99.90;;;;;;5114533;28;20023;-77
2023/01/02 09:19:41;;;;;;;139.65;60.72;;;10.30;99.90;;;;;;5114710;28;20024;-77
2023/01/02 09:22:08;;;;;;;126.85;59.55;;;10.30;99.90;;;;;;5114555;28;20075;-78
2023/01/02 09:24:34;;;;;;;116.82;56.42;;;10.30;99.90;;;;;;5114423;28;20016;-78
2023/01/02 09:26:59;;;;;;;122.75;56.28;;;10.40;99.90;;;;;;5114056;28;20042;-78
2023/01/02 09:29:25;;;;;;;120.35;57.55;;;10.40;99.90;;;;;;5106702;28;20031;-77
2023/01/02 09:31:51;;;;;;;115.95;56.20;;;10.40;99.90;;;;;;5102999;28;20020;-77
2023/01/02 09:34:17;;;;;;;112.35;59.05;;;10.40;99.90;;;;;;5103825;28;20266;-78
2023/01/02 09:36:42;;;;;;;113.18;54.80;;;10.40;99.90;;;;;;5106495;28;20130;-78
2023/01/02 09:39:08;;;;;;;105.38;54.13;;;10.40;99.90;;;;;;5103387;28;20421;-78
2023/01/02 09:41:40;;;;;;;108.70;52.55;;;10.40;99.90;;;;;;5104453;28;20024;-77
2023/01/02 09:44:33;;;;;;;103.03;53.72;;;10.40;99.90;;;;;;5108190;28;20039;-78
2023/01/02 09:47:03;;;;;;;105.32;53.10;;;10.40;99.90;;;;;;5097784;28;20067;-78
2023/01/02 09:49:35;;;;;;;100.70;52.78;;;10.40;99.90;;;;;;5104180;28;20027;-77
2023/01/02 09:52:01;;;;;;;107.22;53.55;;;10.40;99.90;;;;;;5105128;28;20027;-77
2023/01/02 09:54:32;;;;;;;103.47;54.17;;;10.50;99.90;;;;;;5103811;28;20107;-78
2023/01/02 09:57:09;;;;;;;102.43;52.28;;;10.50;99.90;;;;;;5102328;28;20093;-77
2023/01/02 09:59:41;;;;;;;101.00;52.78;;;10.50;99.90;;;;;;5106175;28;20406;-78
2023/01/02 10:02:21;;;;;;;98.97;51.50;;;10.50;99.90;;;;;;5105945;28;20111;-77
2023/01/02 10:04:53;;;;;;;98.85;51.63;;;10.50;99.90;;;;;;5110172;28;20127;-77
2023/01/02 10:07:46;;;;;;;102.85;53.10;;;10.60;99.90;;;;;;5114007;28;20359;-77
2023/01/02 10:10:12;;;;;;;97.07;53.60;;;10.60;99.90;;;;;;5104646;28;20548;-77
2023/01/02 10:12:55;;;;;;;97.60;52.15;;;10.50;99.90;;;;;;5105817;28;20019;-77
2023/01/02 10:15:31;;;;;;;100.43;52.97;;;10.50;99.90;;;;;;5111719;28;20270;-78
2023/01/02 10:18:06;;;;;;;103.20;54.47;;;10.60;99.90;;;;;;5105841;28;20035;-77
2023/01/02 10:20:39;;;;;;;101.70;52.45;;;10.50;99.90;;;;;;5101728;28;20020;-77
2023/01/02 10:23:20;;;;;;;106.72;56.53;;;10.50;99.90;;;;;;5112211;28;20507;-77
2023/01/02 10:25:52;;;;;;;117.72;58.67;;;10.50;99.90;;;;;;5102937;28;20020;-78
2023/01/02 10:28:17;;;;;;;124.60;59.45;;;10.60;99.90;;;;;;5101401;28;20468;-77
2023/01/02 10:30:49;;;;;;;117.60;58.50;;;10.60;99.90;;;;;;5105490;28;20031;-77
2023/01/02 10:33:27;;;;;;;111.05;56.45;;;10.60;99.90;;;;;;5103064;28;20370;-77
2023/01/02 10:35:58;;;;;;;112.18;55.65;;;10.60;99.90;;;;;;5102568;28;20059;-78
2023/01/02 10:38:35;;;;;;;113.05;56.03;;;10.60;99.90;;;;;;5103394;28;20045;-77
2023/01/02 10:41:02;;;;;;;114.53;55.75;;;10.60;99.90;;;;;;5102273;28;20024;-77
2023/01/02 10:43:29;;;;;;;114.32;56.17;;;10.60;99.90;;;;;;5099523;28;20027;-77
2023/01/02 10:45:55;;;;;;;116.57;55.17;;;10.60;99.90;;;;;;5099566;28;20026;-77
2023/01/02 10:48:25;;;;;;;119.78;57.05;;;10.60;99.90;;;;;;5100947;28;20360;-77
2023/01/02 10:50:59;;;;;;;113.00;55.67;;;10.60;99.90;;;;;;5109663;28;20038;-77
2023/01/02 10:53:31;;;;;;;115.43;56.03;;;10.60;99.90;;;;;;5109460;28;20342;-77
2023/01/02 10:56:06;;;;;;;116.13;56.45;;;10.60;99.90;;;;;;5111369;28;20024;-78
2023/01/02 10:58:33;;;;;;;122.60;57.72;;;10.60;99.90;;;;;;5104381;28;20027;-77
2023/01/02 11:01:05;;;;;;;123.53;57.28;;;10.50;99.90;;;;;;5094950;28;20027;-78
2023/01/02 11:03:30;;;;;;;129.60;60.63;;;10.60;99.90;;;;;;5102024;28;20483;-78
2023/01/02 11:05:58;;;;;;;129.90;61.65;;;10.60;99.90;;;;;;5103086;28;20023;-78
2023/01/02 11:08:38;;;;;;;120.22;60.83;;;10.60;99.90;;;;;;5099167;28;20048;-78
2023/01/02 11:11:14;;;;;;;120.90;58.70;;;10.60;99.90;;;;;;5101121;28;20184;-78
2023/01/02 11:13:45;;;;;;;113.90;57.20;;;10.60;99.90;;;;;;5100895;28;20030;-78
2023/01/02 11:16:14;;;;;;;123.95;60.85;;;10.60;99.90;;;;;;5103556;28;20023;-78
2023/01/02 11:18:44;;;;;;;122.60;60.38;;;10.60;99.90;;;;;;5098889;28;20032;-78
2023/01/02 11:21:10;;;;;;;122.40;59.20;;;10.60;99.90;;;;;;5101421;28;20023;-78
2023/01/02 11:23:43;;;;;;;124.38;60.38;;;10.60;99.90;;;;;;5110948;28;20030;-78
2023/01/02 11:26:18;;;;;;;122.35;59.42;;;10.50;99.90;;;;;;5136572;27;20502;-78
2023/01/02 11:28:44;;;;;;;119.95;58.17;;;10.50;99.90;;;;;;5103179;27;20285;-78
2023/01/02 11:31:13;;;;;;;120.20;58.67;;;10.40;99.90;;;;;;5109343;27;20479;-78
2023/01/02 11:33:45;;;;;;;121.50;59.30;;;10.50;99.90;;;;;;5110504;27;20027;-78
2023/01/02 11:36:10;;;;;;;132.48;60.08;;;10.50;99.90;;;;;;5106439;27;20300;-78
2023/01/02 11:38:42;;;;;;;138.52;62.25;;;10.50;99.90;;;;;;5103489;27;20470;-78
2023/01/02 11:43:47;;;;;;;124.20;61.75;;;10.50;99.90;;;;;;5103138;27;20051;-78
2023/01/02 11:44:28;;;;;;;125.25;62.08;;;10.60;99.90;;;;;;5107540;27;20083;-78
2023/01/02 11:46:55;;;;;;;141.13;62.03;;;10.50;99.90;;;;;;5107431;27;20467;-78
2023/01/02 11:49:26;;;;;;;135.55;61.60;;;10.50;99.90;;;;;;5106501;27;20379;-78
2023/01/02 11:52:01;;;;;;;139.27;61.53;;;10.60;99.90;;;;;;5109613;27;20110;-78
2023/01/02 11:54:40;;;;;;;152.15;65.55;;;10.60;99.90;;;;;;5110799;27;20250;-78
2023/01/02 11:57:14;;;;;;;153.82;65.70;;;10.50;99.90;;;;;;5110014;27;20224;-78
2023/01/02 11:59:46;;;;;;;146.35;67.88;;;10.50;99.90;;;;;;5108983;28;20085;-78
2023/01/02 12:02:39;;;;;;;140.05;62.10;;;10.50;99.90;;;;;;5108662;28;20070;-78
2023/01/02 12:05:47;;;;;;;136.05;60.40;;;10.50;99.90;;;;;;5100755;28;20391;-78
2023/01/02 12:08:30;;;;;;;135.90;60.85;;;10.60;99.90;;;;;;5109405;27;20026;-78
2023/01/02 12:11:24;;;;;;;136.65;59.92;;;10.60;99.90;;;;;;5110027;27;20024;-78
2023/01/02 12:14:06;;;;;;;140.50;60.72;;;10.60;99.90;;;;;;5077907;28;20542;-78
2023/01/02 12:17:07;;;;;;;140.43;62.03;;;10.70;99.90;;;;;;5109387;28;20039;-78
2023/01/02 12:19:38;;;;;;;164.35;64.15;;;10.70;99.90;;;;;;5048324;28;20033;-78
2023/01/02 12:22:28;;;;;;;159.05;63.10;;;10.70;99.90;;;;;;5113376;27;20032;-78
2023/01/02 12:25:05;;;;;;;154.23;64.28;;;10.60;99.90;;;;;;5109612;28;20019;-78
2023/01/02 12:27:56;;;;;;;164.15;63.75;;;10.60;99.90;;;;;;5110988;28;20031;-78
2023/01/02 12:30:22;;;;;;;147.73;62.45;;;10.70;99.90;;;;;;5109905;28;20019;-78
2023/01/02 12:33:15;;;;;;;148.98;63.42;;;10.70;99.90;;;;;;5109423;28;20124;-78
2023/01/02 12:36:00;;;;;;;150.13;62.25;;;10.70;99.90;;;;;;5101493;28;20031;-78
2023/01/02 12:38:52;;;;;;;151.55;62.15;;;10.70;99.90;;;;;;5098436;28;20032;-78